sensor_id;sensor_type;location;lat;lon;timestamp;pressure;altitude;pressure_sealevel;temperature;humidity
11339;BME280;5724;42.684;23.252;2023-04-07T00:01:18;94047.78;;;0.92;61.19
11339;BME280;5724;42.684;23.252;2023-04-07T00:03:43;94061.31;;;0.65;61.92
11339;BME280;5724;42.684;23.252;2023-04-07T00:06:09;94052.66;;;0.18;64.21
11339;BME280;5724;42.684;23.252;2023-04-07T00:08:35;94053.06;;;-0.03;64.33
11339;BME280;5724;42.684;23.252;2023-04-07T00:11:00;94064.00;;;-0.26;65.34
11339;BME280;5724;42.684;23.252;2023-04-07T00:13:26;94061.44;;;-0.18;65.43
11339;BME280;5724;42.684;23.252;2023-04-07T00:15:51;94065.03;;;-0.09;64.96
11339;BME280;5724;42.684;23.252;2023-04-07T00:18:17;94055.88;;;-0.08;64.94
11339;BME280;5724;42.684;23.252;2023-04-07T00:20:42;94046.91;;;-0.17;65.11
11339;BME280;5724;42.684;23.252;2023-04-07T00:23:07;94051.88;;;-0.24;65.88
11339;BME280;5724;42.684;23.252;2023-04-07T00:25:33;94055.88;;;-0.08;65.86
11339;BME280;5724;42.684;23.252;2023-04-07T00:27:58;94045.41;;;-0.23;64.81
11339;BME280;5724;42.684;23.252;2023-04-07T00:30:24;94045.91;;;-0.21;65.11
11339;BME280;5724;42.684;23.252;2023-04-07T00:32:50;94050.19;;;-0.06;64.56
11339;BME280;5724;42.684;23.252;2023-04-07T00:35:16;94044.50;;;-0.05;63.40
11339;BME280;5724;42.684;23.252;2023-04-07T00:37:41;94037.88;;;-0.07;63.29
11339;BME280;5724;42.684;23.252;2023-04-07T00:40:07;94046.25;;;0.27;62.89
11339;BME280;5724;42.684;23.252;2023-04-07T00:42:33;94051.47;;;0.60;61.61
11339;BME280;5724;42.684;23.252;2023-04-07T00:44:59;94054.38;;;0.86;61.67
11339;BME280;5724;42.684;23.252;2023-04-07T00:47:24;94056.47;;;0.89;61.08
11339;BME280;5724;42.684;23.252;2023-04-07T00:49:50;94041.91;;;0.90;60.60
11339;BME280;5724;42.684;23.252;2023-04-07T00:52:16;94049.44;;;0.43;61.91
11339;BME280;5724;42.684;23.252;2023-04-07T00:54:43;94045.00;;;-0.03;63.53
11339;BME280;5724;42.684;23.252;2023-04-07T00:57:11;94049.59;;;-0.17;63.61
11339;BME280;5724;42.684;23.252;2023-04-07T00:59:36;94057.56;;;-0.25;64.33
11339;BME280;5724;42.684;23.252;2023-04-07T01:02:54;94041.53;;;-0.17;64.34
11339;BME280;5724;42.684;23.252;2023-04-07T01:05:20;94047.81;;;-0.08;64.37
11339;BME280;5724;42.684;23.252;2023-04-07T01:07:54;94052.28;;;-0.03;64.76
11339;BME280;5724;42.684;23.252;2023-04-07T01:13:37;94032.28;;;-0.11;65.72
11339;BME280;5724;42.684;23.252;2023-04-07T01:16:11;94046.50;;;-0.10;64.57
11339;BME280;5724;42.684;23.252;2023-04-07T01:18:38;94023.34;;;-0.20;64.31
11339;BME280;5724;42.684;23.252;2023-04-07T01:21:14;94018.19;;;-0.16;64.63
11339;BME280;5724;42.684;23.252;2023-04-07T01:26:23;94028.81;;;0.03;64.66
11339;BME280;5724;42.684;23.252;2023-04-07T01:29:03;94025.41;;;-0.03;66.17
11339;BME280;5724;42.684;23.252;2023-04-07T01:31:32;94040.13;;;0.13;64.82
11339;BME280;5724;42.684;23.252;2023-04-07T01:33:59;94032.38;;;0.12;64.84
11339;BME280;5724;42.684;23.252;2023-04-07T01:36:26;94041.53;;;0.11;64.25
11339;BME280;5724;42.684;23.252;2023-04-07T01:38:53;94028.19;;;0.06;64.92
11339;BME280;5724;42.684;23.252;2023-04-07T01:41:19;94039.22;;;0.18;64.52
11339;BME280;5724;42.684;23.252;2023-04-07T01:43:47;94026.38;;;0.65;61.42
11339;BME280;5724;42.684;23.252;2023-04-07T01:46:14;94019.53;;;1.03;60.21
11339;BME280;5724;42.684;23.252;2023-04-07T01:48:40;94024.22;;;1.20;59.96
11339;BME280;5724;42.684;23.252;2023-04-07T01:51:07;94033.16;;;0.62;60.19
11339;BME280;5724;42.684;23.252;2023-04-07T01:53:33;94008.06;;;0.17;61.99
11339;BME280;5724;42.684;23.252;2023-04-07T01:56:02;94021.41;;;0.08;61.33
11339;BME280;5724;42.684;23.252;2023-04-07T01:58:28;94013.09;;;0.10;61.93
11339;BME280;5724;42.684;23.252;2023-04-07T02:00:53;94004.84;;;-0.08;63.03
11339;BME280;5724;42.684;23.252;2023-04-07T02:06:26;94001.72;;;-0.01;62.42
11339;BME280;5724;42.684;23.252;2023-04-07T02:08:56;94015.47;;;0.11;62.42
11339;BME280;5724;42.684;23.252;2023-04-07T02:11:24;94013.19;;;0.05;61.80
11339;BME280;5724;42.684;23.252;2023-04-07T02:13:53;94009.38;;;0.55;59.17
11339;BME280;5724;42.684;23.252;2023-04-07T02:16:20;94019.41;;;0.86;59.05
11339;BME280;5724;42.684;23.252;2023-04-07T02:18:46;94019.91;;;1.10;57.71
11339;BME280;5724;42.684;23.252;2023-04-07T02:21:14;94010.44;;;0.68;58.50
11339;BME280;5724;42.684;23.252;2023-04-07T02:23:40;94020.72;;;0.30;59.88
11339;BME280;5724;42.684;23.252;2023-04-07T02:26:05;94020.44;;;0.04;61.22
11339;BME280;5724;42.684;23.252;2023-04-07T02:28:31;94012.88;;;0.06;60.61
11339;BME280;5724;42.684;23.252;2023-04-07T02:30:56;94022.81;;;0.06;61.32
11339;BME280;5724;42.684;23.252;2023-04-07T02:33:21;94031.84;;;0.23;61.12
11339;BME280;5724;42.684;23.252;2023-04-07T02:35:47;94019.03;;;0.20;60.68
11339;BME280;5724;42.684;23.252;2023-04-07T02:38:12;94016.63;;;0.19;60.72
11339;BME280;5724;42.684;23.252;2023-04-07T02:40:38;94027.00;;;0.12;60.90
11339;BME280;5724;42.684;23.252;2023-04-07T02:43:03;94020.81;;;0.25;60.77
11339;BME280;5724;42.684;23.252;2023-04-07T02:45:29;94031.84;;;0.23;60.59
11339;BME280;5724;42.684;23.252;2023-04-07T02:47:55;94019.69;;;0.40;59.81
11339;BME280;5724;42.684;23.252;2023-04-07T02:50:20;94012.19;;;0.50;59.34
11339;BME280;5724;42.684;23.252;2023-04-07T02:52:46;94022.16;;;0.36;60.01
11339;BME280;5724;42.684;23.252;2023-04-07T02:55:11;94027.22;;;0.74;59.26
11339;BME280;5724;42.684;23.252;2023-04-07T02:57:37;94031.88;;;1.04;58.09
11339;BME280;5724;42.684;23.252;2023-04-07T03:00:03;94031.16;;;1.43;56.68
11339;BME280;5724;42.684;23.252;2023-04-07T03:02:29;94023.75;;;0.73;58.45
11339;BME280;5724;42.684;23.252;2023-04-07T03:04:54;94030.38;;;0.53;58.38
11339;BME280;5724;42.684;23.252;2023-04-07T03:07:20;94032.50;;;0.43;58.86
11339;BME280;5724;42.684;23.252;2023-04-07T03:09:45;94037.81;;;0.34;59.27
11339;BME280;5724;42.684;23.252;2023-04-07T03:12:11;94035.13;;;0.34;60.61
11339;BME280;5724;42.684;23.252;2023-04-07T03:14:36;94036.09;;;0.38;59.52
11339;BME280;5724;42.684;23.252;2023-04-07T03:17:03;94033.47;;;0.47;59.66
11339;BME280;5724;42.684;23.252;2023-04-07T03:19:28;94038.28;;;0.36;59.68
11339;BME280;5724;42.684;23.252;2023-04-07T03:21:54;94041.97;;;0.40;59.50
11339;BME280;5724;42.684;23.252;2023-04-07T03:24:19;94022.84;;;0.42;60.38
11339;BME280;5724;42.684;23.252;2023-04-07T03:26:45;94019.69;;;0.26;59.76
11339;BME280;5724;42.684;23.252;2023-04-07T03:29:11;94024.84;;;0.36;59.94
11339;BME280;5724;42.684;23.252;2023-04-07T03:31:36;94021.34;;;0.49;59.88
11339;BME280;5724;42.684;23.252;2023-04-07T03:34:03;94022.59;;;0.88;58.72
11339;BME280;5724;42.684;23.252;2023-04-07T03:36:28;94030.81;;;1.14;57.58
11339;BME280;5724;42.684;23.252;2023-04-07T03:38:55;94016.53;;;1.27;56.69
11339;BME280;5724;42.684;23.252;2023-04-07T03:41:21;94026.13;;;0.75;58.09
11339;BME280;5724;42.684;23.252;2023-04-07T03:43:47;94029.06;;;0.15;60.89
11339;BME280;5724;42.684;23.252;2023-04-07T03:46:12;94019.53;;;0.09;60.96
11339;BME280;5724;42.684;23.252;2023-04-07T03:48:37;94031.28;;;-0.01;61.66
11339;BME280;5724;42.684;23.252;2023-04-07T03:51:03;94031.16;;;0.18;61.13
11339;BME280;5724;42.684;23.252;2023-04-07T03:53:28;94038.22;;;0.14;61.29
11339;BME280;5724;42.684;23.252;2023-04-07T03:55:54;94033.75;;;0.23;61.90
11339;BME280;5724;42.684;23.252;2023-04-07T03:58:19;94034.84;;;0.22;62.15
11339;BME280;5724;42.684;23.252;2023-04-07T04:00:45;94033.53;;;0.69;61.14
11339;BME280;5724;42.684;23.252;2023-04-07T04:03:10;94029.88;;;0.88;59.45
11339;BME280;5724;42.684;23.252;2023-04-07T04:05:36;94038.16;;;1.22;58.83
11339;BME280;5724;42.684;23.252;2023-04-07T04:08:02;94042.72;;;0.54;59.96
11339;BME280;5724;42.684;23.252;2023-04-07T04:10:27;94021.50;;;0.17;61.33
11339;BME280;5724;42.684;23.252;2023-04-07T04:12:53;94028.38;;;0.09;61.57
11339;BME280;5724;42.684;23.252;2023-04-07T04:15:18;94024.00;;;0.13;61.57
11339;BME280;5724;42.684;23.252;2023-04-07T04:17:44;94051.63;;;0.27;61.71
11339;BME280;5724;42.684;23.252;2023-04-07T04:20:09;94047.97;;;0.23;61.00
11339;BME280;5724;42.684;23.252;2023-04-07T04:22:35;94043.88;;;0.26;61.50
11339;BME280;5724;42.684;23.252;2023-04-07T04:25:01;94036.69;;;0.35;61.10
11339;BME280;5724;42.684;23.252;2023-04-07T04:27:27;94037.56;;;0.44;60.54
11339;BME280;5724;42.684;23.252;2023-04-07T04:29:52;94047.44;;;0.35;61.52
11339;BME280;5724;42.684;23.252;2023-04-07T04:32:18;94051.19;;;0.84;59.54
11339;BME280;5724;42.684;23.252;2023-04-07T04:34:44;94036.53;;;1.12;58.79
11339;BME280;5724;42.684;23.252;2023-04-07T04:37:09;94036.25;;;1.23;58.11
11339;BME280;5724;42.684;23.252;2023-04-07T04:39:35;94030.72;;;0.74;59.52
11339;BME280;5724;42.684;23.252;2023-04-07T04:42:01;94033.34;;;0.30;60.24
11339;BME280;5724;42.684;23.252;2023-04-07T04:44:28;94053.31;;;0.37;60.85
11339;BME280;5724;42.684;23.252;2023-04-07T04:46:54;94048.84;;;0.33;60.48
11339;BME280;5724;42.684;23.252;2023-04-07T04:49:19;94055.19;;;0.50;59.18
11339;BME280;5724;42.684;23.252;2023-04-07T04:51:45;94045.00;;;0.61;59.40
11339;BME280;5724;42.684;23.252;2023-04-07T04:54:10;94060.44;;;0.55;59.55
11339;BME280;5724;42.684;23.252;2023-04-07T04:56:35;94049.91;;;0.59;58.96
11339;BME280;5724;42.684;23.252;2023-04-07T04:59:02;94059.88;;;0.81;59.07
11339;BME280;5724;42.684;23.252;2023-04-07T05:01:28;94072.06;;;0.65;58.92
11339;BME280;5724;42.684;23.252;2023-04-07T05:03:53;94066.59;;;0.70;58.21
11339;BME280;5724;42.684;23.252;2023-04-07T05:06:18;94073.69;;;1.10;58.32
11339;BME280;5724;42.684;23.252;2023-04-07T05:08:44;94076.50;;;1.50;56.31
11339;BME280;5724;42.684;23.252;2023-04-07T05:11:11;94070.09;;;1.68;55.75
11339;BME280;5724;42.684;23.252;2023-04-07T05:13:37;94080.72;;;1.73;56.38
11339;BME280;5724;42.684;23.252;2023-04-07T05:16:02;94084.38;;;1.24;57.52
11339;BME280;5724;42.684;23.252;2023-04-07T05:18:28;94088.13;;;0.92;57.71
11339;BME280;5724;42.684;23.252;2023-04-07T05:20:53;94079.94;;;0.97;57.37
11339;BME280;5724;42.684;23.252;2023-04-07T05:23:18;94095.94;;;1.25;57.42
11339;BME280;5724;42.684;23.252;2023-04-07T05:25:44;94092.28;;;1.21;57.26
11339;BME280;5724;42.684;23.252;2023-04-07T05:28:09;94099.16;;;1.27;57.86
11339;BME280;5724;42.684;23.252;2023-04-07T05:30:35;94074.44;;;1.02;57.79
11339;BME280;5724;42.684;23.252;2023-04-07T05:33:00;94095.91;;;1.16;57.47
11339;BME280;5724;42.684;23.252;2023-04-07T05:35:26;94087.88;;;1.47;56.48
11339;BME280;5724;42.684;23.252;2023-04-07T05:37:51;94090.63;;;1.87;55.64
11339;BME280;5724;42.684;23.252;2023-04-07T05:40:17;94096.25;;;2.08;54.24
11339;BME280;5724;42.684;23.252;2023-04-07T05:42:43;94092.38;;;1.91;53.81
11339;BME280;5724;42.684;23.252;2023-04-07T05:45:10;94088.25;;;1.32;56.42
11339;BME280;5724;42.684;23.252;2023-04-07T05:47:35;94092.59;;;0.97;56.95
11339;BME280;5724;42.684;23.252;2023-04-07T05:50:01;94098.13;;;0.78;57.83
11339;BME280;5724;42.684;23.252;2023-04-07T05:52:26;94097.53;;;1.03;57.08
11339;BME280;5724;42.684;23.252;2023-04-07T05:54:52;94105.41;;;1.36;56.56
11339;BME280;5724;42.684;23.252;2023-04-07T05:57:17;94100.03;;;1.44;57.15
11339;BME280;5724;42.684;23.252;2023-04-07T05:59:43;94087.72;;;1.75;54.99
11339;BME280;5724;42.684;23.252;2023-04-07T06:02:08;94103.59;;;2.16;53.64
11339;BME280;5724;42.684;23.252;2023-04-07T06:04:34;94092.44;;;2.57;55.89
11339;BME280;5724;42.684;23.252;2023-04-07T06:07:00;94092.47;;;2.74;54.43
11339;BME280;5724;42.684;23.252;2023-04-07T06:09:26;94103.91;;;2.14;53.12
11339;BME280;5724;42.684;23.252;2023-04-07T06:11:52;94103.91;;;1.83;54.05
11339;BME280;5724;42.684;23.252;2023-04-07T06:14:17;94107.31;;;1.44;54.76
11339;BME280;5724;42.684;23.252;2023-04-07T06:16:43;94101.88;;;1.58;56.06
11339;BME280;5724;42.684;23.252;2023-04-07T06:19:08;94088.78;;;1.65;54.59
11339;BME280;5724;42.684;23.252;2023-04-07T06:21:34;94093.06;;;1.66;55.10
11339;BME280;5724;42.684;23.252;2023-04-07T06:23:59;94092.56;;;1.95;55.02
11339;BME280;5724;42.684;23.252;2023-04-07T06:26:25;94087.56;;;1.80;53.97
11339;BME280;5724;42.684;23.252;2023-04-07T06:28:51;94097.69;;;1.74;53.85
11339;BME280;5724;42.684;23.252;2023-04-07T06:31:17;94107.78;;;1.99;54.23
11339;BME280;5724;42.684;23.252;2023-04-07T06:33:43;94099.88;;;2.43;54.46
11339;BME280;5724;42.684;23.252;2023-04-07T06:36:09;94096.47;;;2.94;52.42
11339;BME280;5724;42.684;23.252;2023-04-07T06:38:35;94112.97;;;3.36;50.62
11339;BME280;5724;42.684;23.252;2023-04-07T06:41:00;94100.09;;;3.24;50.34
11339;BME280;5724;42.684;23.252;2023-04-07T06:43:26;94089.59;;;2.79;51.38
11339;BME280;5724;42.684;23.252;2023-04-07T06:45:51;94091.50;;;2.53;53.42
11339;BME280;5724;42.684;23.252;2023-04-07T06:48:17;94099.06;;;2.51;52.17
11339;BME280;5724;42.684;23.252;2023-04-07T06:50:47;94087.84;;;2.66;52.83
11339;BME280;5724;42.684;23.252;2023-04-07T06:53:13;94094.22;;;2.87;52.30
11339;BME280;5724;42.684;23.252;2023-04-07T06:55:39;94089.50;;;3.10;51.79
11339;BME280;5724;42.684;23.252;2023-04-07T06:58:04;94088.84;;;3.13;51.00
11339;BME280;5724;42.684;23.252;2023-04-07T07:00:30;94106.16;;;3.21;51.26
11339;BME280;5724;42.684;23.252;2023-04-07T07:02:55;94105.50;;;3.07;50.72
11339;BME280;5724;42.684;23.252;2023-04-07T07:05:21;94105.81;;;3.05;50.81
11339;BME280;5724;42.684;23.252;2023-04-07T07:07:48;94107.41;;;3.06;50.89
11339;BME280;5724;42.684;23.252;2023-04-07T07:10:13;94116.94;;;3.21;51.16
11339;BME280;5724;42.684;23.252;2023-04-07T07:12:39;94105.84;;;3.31;50.66
11339;BME280;5724;42.684;23.252;2023-04-07T07:15:05;94121.84;;;3.36;51.36
11339;BME280;5724;42.684;23.252;2023-04-07T07:17:31;94123.28;;;3.25;50.57
11339;BME280;5724;42.684;23.252;2023-04-07T07:19:57;94116.16;;;3.29;50.76
11339;BME280;5724;42.684;23.252;2023-04-07T07:22:22;94128.38;;;3.27;51.20
11339;BME280;5724;42.684;23.252;2023-04-07T07:24:48;94117.56;;;3.18;50.76
11339;BME280;5724;42.684;23.252;2023-04-07T07:27:13;94127.44;;;3.31;50.21
11339;BME280;5724;42.684;23.252;2023-04-07T07:29:38;94124.25;;;3.29;50.84
11339;BME280;5724;42.684;23.252;2023-04-07T07:32:04;94130.44;;;3.47;50.92
11339;BME280;5724;42.684;23.252;2023-04-07T07:34:30;94127.25;;;3.62;49.23
11339;BME280;5724;42.684;23.252;2023-04-07T07:36:55;94133.44;;;3.63;50.01
11339;BME280;5724;42.684;23.252;2023-04-07T07:39:21;94134.88;;;3.60;49.53
11339;BME280;5724;42.684;23.252;2023-04-07T07:41:46;94126.31;;;3.58;49.95
11339;BME280;5724;42.684;23.252;2023-04-07T07:44:12;94135.34;;;3.54;50.16
11339;BME280;5724;42.684;23.252;2023-04-07T07:46:37;94132.66;;;3.54;49.37
11339;BME280;5724;42.684;23.252;2023-04-07T07:49:03;94140.47;;;3.38;49.62
11339;BME280;5724;42.684;23.252;2023-04-07T07:51:30;94136.94;;;3.55;49.53
11339;BME280;5724;42.684;23.252;2023-04-07T07:53:55;94140.91;;;3.66;49.10
11339;BME280;5724;42.684;23.252;2023-04-07T07:56:20;94141.53;;;3.71;49.01
11339;BME280;5724;42.684;23.252;2023-04-07T07:58:46;94144.38;;;3.75;49.11
11339;BME280;5724;42.684;23.252;2023-04-07T08:01:12;94137.81;;;4.02;49.70
11339;BME280;5724;42.684;23.252;2023-04-07T08:03:37;94139.47;;;4.24;48.54
11339;BME280;5724;42.684;23.252;2023-04-07T08:06:03;94130.44;;;4.20;48.78
11339;BME280;5724;42.684;23.252;2023-04-07T08:08:28;94136.22;;;4.48;48.05
11339;BME280;5724;42.684;23.252;2023-04-07T08:10:54;94144.78;;;4.88;47.01
11339;BME280;5724;42.684;23.252;2023-04-07T08:13:19;94138.31;;;4.72;46.29
11339;BME280;5724;42.684;23.252;2023-04-07T08:15:45;94125.91;;;4.41;46.67
11339;BME280;5724;42.684;23.252;2023-04-07T08:18:10;94140.50;;;4.49;47.30
11339;BME280;5724;42.684;23.252;2023-04-07T08:20:36;94151.06;;;4.71;47.70
11339;BME280;5724;42.684;23.252;2023-04-07T08:23:02;94143.34;;;4.52;47.73
11339;BME280;5724;42.684;23.252;2023-04-07T08:25:28;94151.38;;;4.40;48.08
11339;BME280;5724;42.684;23.252;2023-04-07T08:27:53;94147.75;;;4.27;47.56
11339;BME280;5724;42.684;23.252;2023-04-07T08:30:19;94151.41;;;4.31;47.65
11339;BME280;5724;42.684;23.252;2023-04-07T08:32:46;94147.72;;;4.36;47.91
11339;BME280;5724;42.684;23.252;2023-04-07T08:35:12;94143.28;;;4.31;48.09
11339;BME280;5724;42.684;23.252;2023-04-07T08:37:38;94140.00;;;4.17;47.71
11339;BME280;5724;42.684;23.252;2023-04-07T08:40:05;94149.84;;;4.13;47.27
11339;BME280;5724;42.684;23.252;2023-04-07T08:42:32;94137.75;;;4.28;47.61
11339;BME280;5724;42.684;23.252;2023-04-07T08:45:03;94134.88;;;4.24;46.90
11339;BME280;5724;42.684;23.252;2023-04-07T08:47:30;94133.81;;;4.17;47.90
11339;BME280;5724;42.684;23.252;2023-04-07T08:50:00;94136.28;;;4.30;47.98
11339;BME280;5724;42.684;23.252;2023-04-07T08:52:32;94146.72;;;4.49;48.71
11339;BME280;5724;42.684;23.252;2023-04-07T08:54:59;94150.63;;;4.60;47.92
11339;BME280;5724;42.684;23.252;2023-04-07T08:57:29;94152.75;;;4.55;47.65
11339;BME280;5724;42.684;23.252;2023-04-07T08:59:59;94144.06;;;4.70;47.08
11339;BME280;5724;42.684;23.252;2023-04-07T09:02:43;94138.31;;;5.01;47.59
11339;BME280;5724;42.684;23.252;2023-04-07T09:05:13;94132.72;;;4.77;46.44
11339;BME280;5724;42.684;23.252;2023-04-07T09:07:39;94135.16;;;4.70;47.00
11339;BME280;5724;42.684;23.252;2023-04-07T09:10:05;94134.66;;;4.76;47.01
11339;BME280;5724;42.684;23.252;2023-04-07T09:12:32;94147.75;;;4.95;46.66
11339;BME280;5724;42.684;23.252;2023-04-07T09:14:58;94137.28;;;5.14;47.09
11339;BME280;5724;42.684;23.252;2023-04-07T09:17:25;94153.25;;;5.07;46.23
11339;BME280;5724;42.684;23.252;2023-04-07T09:19:52;94141.72;;;4.89;46.31
11339;BME280;5724;42.684;23.252;2023-04-07T09:22:41;94161.63;;;4.94;46.57
11339;BME280;5724;42.684;23.252;2023-04-07T09:28:04;94142.13;;;5.00;46.56
11339;BME280;5724;42.684;23.252;2023-04-07T09:30:32;94144.91;;;5.21;47.36
11339;BME280;5724;42.684;23.252;2023-04-07T09:32:58;94146.31;;;5.18;47.61
11339;BME280;5724;42.684;23.252;2023-04-07T09:35:25;94142.25;;;4.83;47.22
11339;BME280;5724;42.684;23.252;2023-04-07T09:38:03;94154.84;;;5.08;47.24
11339;BME280;5724;42.684;23.252;2023-04-07T09:40:29;94150.03;;;5.14;47.42
11339;BME280;5724;42.684;23.252;2023-04-07T09:42:55;94159.78;;;5.06;48.03
11339;BME280;5724;42.684;23.252;2023-04-07T09:45:24;94154.38;;;5.06;47.91
11339;BME280;5724;42.684;23.252;2023-04-07T09:47:50;94150.50;;;5.16;48.38
11339;BME280;5724;42.684;23.252;2023-04-07T09:50:30;94159.16;;;5.51;48.28
11339;BME280;5724;42.684;23.252;2023-04-07T09:52:55;94158.69;;;5.49;46.09
11339;BME280;5724;42.684;23.252;2023-04-07T09:55:22;94170.19;;;5.46;46.21
11339;BME280;5724;42.684;23.252;2023-04-07T09:57:49;94157.88;;;5.49;46.95
11339;BME280;5724;42.684;23.252;2023-04-07T10:00:15;94146.22;;;5.36;48.26
11339;BME280;5724;42.684;23.252;2023-04-07T10:02:42;94152.75;;;5.35;47.24
11339;BME280;5724;42.684;23.252;2023-04-07T10:05:08;94150.78;;;5.23;46.92
11339;BME280;5724;42.684;23.252;2023-04-07T10:07:34;94140.50;;;5.29;47.66
11339;BME280;5724;42.684;23.252;2023-04-07T10:09:59;94160.94;;;5.47;48.28
11339;BME280;5724;42.684;23.252;2023-04-07T10:12:26;94164.25;;;5.32;46.76
11339;BME280;5724;42.684;23.252;2023-04-07T10:14:52;94159.03;;;5.27;48.00
11339;BME280;5724;42.684;23.252;2023-04-07T10:17:19;94156.97;;;5.24;48.60
11339;BME280;5724;42.684;23.252;2023-04-07T10:19:47;94170.75;;;5.10;47.87
11339;BME280;5724;42.684;23.252;2023-04-07T10:22:15;94160.06;;;5.13;47.81
11339;BME280;5724;42.684;23.252;2023-04-07T10:27:23;94155.16;;;5.07;47.97
11339;BME280;5724;42.684;23.252;2023-04-07T10:29:52;94154.44;;;4.98;49.41
11339;BME280;5724;42.684;23.252;2023-04-07T10:32:18;94172.25;;;4.99;48.77
11339;BME280;5724;42.684;23.252;2023-04-07T10:37:16;94174.16;;;4.69;54.55
11339;BME280;5724;42.684;23.252;2023-04-07T10:39:45;94170.59;;;4.47;55.02
11339;BME280;5724;42.684;23.252;2023-04-07T10:45:02;94172.88;;;4.37;55.20
11339;BME280;5724;42.684;23.252;2023-04-07T10:47:28;94169.84;;;4.38;54.51
11339;BME280;5724;42.684;23.252;2023-04-07T10:52:41;94170.91;;;4.54;55.06
11339;BME280;5724;42.684;23.252;2023-04-07T10:55:32;94183.09;;;4.60;55.02
11339;BME280;5724;42.684;23.252;2023-04-07T11:03:24;94180.00;;;4.79;53.15
11339;BME280;5724;42.684;23.252;2023-04-07T11:05:50;94175.81;;;4.91;54.03
11339;BME280;5724;42.684;23.252;2023-04-07T11:08:35;94178.09;;;5.09;54.78
11339;BME280;5724;42.684;23.252;2023-04-07T11:11:02;94169.97;;;5.30;53.16
11339;BME280;5724;42.684;23.252;2023-04-07T11:13:42;94167.59;;;5.29;54.06
11339;BME280;5724;42.684;23.252;2023-04-07T11:16:08;94172.69;;;5.30;54.14
11339;BME280;5724;42.684;23.252;2023-04-07T11:18:34;94180.41;;;5.20;54.47
11339;BME280;5724;42.684;23.252;2023-04-07T11:21:00;94171.66;;;5.23;54.52
11339;BME280;5724;42.684;23.252;2023-04-07T11:23:27;94177.69;;;5.20;53.47
11339;BME280;5724;42.684;23.252;2023-04-07T11:26:00;94183.72;;;5.25;54.02
11339;BME280;5724;42.684;23.252;2023-04-07T11:28:27;94177.25;;;5.17;54.57
11339;BME280;5724;42.684;23.252;2023-04-07T11:30:53;94179.56;;;5.28;54.42
11339;BME280;5724;42.684;23.252;2023-04-07T11:33:21;94192.78;;;5.29;54.82
11339;BME280;5724;42.684;23.252;2023-04-07T11:35:55;94200.38;;;5.15;54.41
11339;BME280;5724;42.684;23.252;2023-04-07T11:38:23;94176.31;;;5.13;53.69
11339;BME280;5724;42.684;23.252;2023-04-07T11:40:49;94185.66;;;5.25;54.31
11339;BME280;5724;42.684;23.252;2023-04-07T11:43:16;94185.53;;;5.21;54.76
11339;BME280;5724;42.684;23.252;2023-04-07T11:45:42;94198.06;;;5.26;56.12
11339;BME280;5724;42.684;23.252;2023-04-07T11:48:28;94192.78;;;5.00;56.33
11339;BME280;5724;42.684;23.252;2023-04-07T11:50:54;94195.44;;;5.08;56.30
11339;BME280;5724;42.684;23.252;2023-04-07T11:53:30;94175.09;;;5.32;55.51
11339;BME280;5724;42.684;23.252;2023-04-07T11:56:10;94174.47;;;5.47;54.36
11339;BME280;5724;42.684;23.252;2023-04-07T11:58:46;94186.97;;;5.39;54.67
11339;BME280;5724;42.684;23.252;2023-04-07T12:01:12;94178.59;;;5.32;54.34
11339;BME280;5724;42.684;23.252;2023-04-07T12:04:02;94174.22;;;5.61;55.99
11339;BME280;5724;42.684;23.252;2023-04-07T12:06:35;94178.50;;;5.83;54.81
11339;BME280;5724;42.684;23.252;2023-04-07T12:09:06;94168.88;;;5.52;54.83
11339;BME280;5724;42.684;23.252;2023-04-07T12:11:33;94178.66;;;5.65;53.67
11339;BME280;5724;42.684;23.252;2023-04-07T12:13:59;94172.97;;;5.58;54.15
11339;BME280;5724;42.684;23.252;2023-04-07T12:16:25;94173.63;;;5.55;54.39
11339;BME280;5724;42.684;23.252;2023-04-07T12:18:51;94171.13;;;5.50;55.30
11339;BME280;5724;42.684;23.252;2023-04-07T12:21:17;94169.84;;;5.27;55.55
11339;BME280;5724;42.684;23.252;2023-04-07T12:23:43;94175.09;;;5.32;55.52
11339;BME280;5724;42.684;23.252;2023-04-07T12:26:09;94176.78;;;5.57;55.48
11339;BME280;5724;42.684;23.252;2023-04-07T12:28:36;94192.59;;;5.55;53.99
11339;BME280;5724;42.684;23.252;2023-04-07T12:31:02;94183.56;;;5.51;54.70
11339;BME280;5724;42.684;23.252;2023-04-07T12:33:27;94172.03;;;5.54;53.39
11339;BME280;5724;42.684;23.252;2023-04-07T12:35:53;94178.38;;;5.79;54.01
11339;BME280;5724;42.684;23.252;2023-04-07T12:38:19;94171.38;;;5.99;54.21
11339;BME280;5724;42.684;23.252;2023-04-07T12:40:44;94170.97;;;6.09;54.05
11339;BME280;5724;42.684;23.252;2023-04-07T12:43:10;94171.06;;;5.80;53.61
11339;BME280;5724;42.684;23.252;2023-04-07T12:45:36;94176.31;;;5.76;54.92
11339;BME280;5724;42.684;23.252;2023-04-07T12:48:01;94199.09;;;5.63;54.25
11339;BME280;5724;42.684;23.252;2023-04-07T12:50:28;94181.88;;;5.38;55.60
11339;BME280;5724;42.684;23.252;2023-04-07T12:52:54;94162.66;;;5.31;55.56
11339;BME280;5724;42.684;23.252;2023-04-07T12:55:20;94171.25;;;5.33;56.04
11339;BME280;5724;42.684;23.252;2023-04-07T12:57:46;94176.34;;;5.55;56.30
11339;BME280;5724;42.684;23.252;2023-04-07T13:00:12;94173.69;;;5.67;55.24
11339;BME280;5724;42.684;23.252;2023-04-07T13:02:38;94175.59;;;5.67;54.88
11339;BME280;5724;42.684;23.252;2023-04-07T13:05:03;94176.88;;;5.69;55.30
11339;BME280;5724;42.684;23.252;2023-04-07T13:07:29;94178.59;;;5.53;55.58
11339;BME280;5724;42.684;23.252;2023-04-07T13:09:55;94180.63;;;5.56;55.72
11339;BME280;5724;42.684;23.252;2023-04-07T13:12:21;94180.63;;;5.56;56.65
11339;BME280;5724;42.684;23.252;2023-04-07T13:14:47;94177.88;;;5.44;55.67
11339;BME280;5724;42.684;23.252;2023-04-07T13:17:13;94177.91;;;5.56;57.00
11339;BME280;5724;42.684;23.252;2023-04-07T13:19:38;94189.28;;;5.50;55.93
11339;BME280;5724;42.684;23.252;2023-04-07T13:22:04;94185.19;;;5.43;57.17
11339;BME280;5724;42.684;23.252;2023-04-07T13:24:30;94176.28;;;5.43;56.61
11339;BME280;5724;42.684;23.252;2023-04-07T13:26:55;94191.66;;;5.30;56.33
11339;BME280;5724;42.684;23.252;2023-04-07T13:29:22;94177.97;;;5.47;56.41
11339;BME280;5724;42.684;23.252;2023-04-07T13:31:48;94185.13;;;5.31;56.52
11339;BME280;5724;42.684;23.252;2023-04-07T13:34:14;94185.97;;;5.23;57.71
11339;BME280;5724;42.684;23.252;2023-04-07T13:36:40;94195.69;;;5.24;57.24